createdAt,value
2017-11-25T00:01:18.710Z,9.90
2017-11-25T00:03:46.315Z,9.90
2017-11-25T00:06:13.754Z,9.90
2017-11-25T00:08:41.201Z,10.00
2017-11-25T00:11:08.677Z,10.00
2017-11-25T00:13:36.138Z,10.00
2017-11-25T00:16:04.375Z,10.00
2017-11-25T00:18:33.316Z,10.00
2017-11-25T00:21:00.751Z,9.90
2017-11-25T00:23:28.187Z,9.90
2017-11-25T00:25:55.646Z,10.00
2017-11-25T00:28:26.696Z,9.90
2017-11-25T00:30:54.138Z,9.90
2017-11-25T00:33:23.685Z,9.90
2017-11-25T00:35:51.750Z,9.80
2017-11-25T00:38:19.181Z,9.80
2017-11-25T00:40:46.778Z,9.80
2017-11-25T00:43:14.532Z,9.80
2017-11-25T00:45:45.777Z,9.80
2017-11-25T00:48:13.211Z,9.80
2017-11-25T00:50:41.601Z,9.80
2017-11-25T00:53:09.058Z,9.80
2017-11-25T00:55:36.527Z,9.80
2017-11-25T00:58:08.019Z,9.80
2017-11-25T01:00:37.134Z,9.80
2017-11-25T01:03:04.591Z,9.80
2017-11-25T01:05:32.019Z,9.70
2017-11-25T01:08:01.167Z,9.60
2017-11-25T01:10:28.970Z,9.60
2017-11-25T01:12:56.454Z,9.60
2017-11-25T01:15:23.886Z,9.60
2017-11-25T01:17:51.318Z,9.50
2017-11-25T01:20:18.788Z,9.50
2017-11-25T01:22:46.405Z,9.50
2017-11-25T01:25:14.810Z,9.40
2017-11-25T01:27:42.234Z,9.40
2017-11-25T01:30:13.137Z,9.40
2017-11-25T01:32:41.885Z,9.40
2017-11-25T01:35:10.563Z,9.40
2017-11-25T01:37:38.030Z,9.40
2017-11-25T01:40:05.474Z,9.40
2017-11-25T01:42:32.914Z,9.30
2017-11-25T01:45:03.546Z,9.30
2017-11-25T01:47:31.003Z,9.30
2017-11-25T01:49:59.906Z,9.50
2017-11-25T01:52:27.349Z,9.50
2017-11-25T01:54:54.839Z,9.50
2017-11-25T01:57:22.274Z,9.50
2017-11-25T01:59:53.759Z,9.60
2017-11-25T02:02:22.723Z,9.50
2017-11-25T02:04:50.166Z,9.50
2017-11-25T02:07:18.546Z,9.50
2017-11-25T02:09:45.988Z,9.50
2017-11-25T02:12:13.494Z,9.50
2017-11-25T02:14:49.237Z,9.50
2017-11-25T02:17:16.709Z,9.60
2017-11-25T02:19:44.143Z,9.60
2017-11-25T02:22:12.154Z,9.50
2017-11-25T02:24:39.582Z,9.50
2017-11-25T02:27:07.019Z,9.40
2017-11-25T02:29:37.674Z,9.40
2017-11-25T02:32:05.131Z,9.30
2017-11-25T02:34:34.930Z,9.30
2017-11-25T02:37:03.272Z,9.30
2017-11-25T02:39:30.760Z,9.40
2017-11-25T02:41:58.228Z,9.40
2017-11-25T02:44:25.723Z,9.30
2017-11-25T02:46:53.158Z,9.20
2017-11-25T02:49:20.624Z,9.20
2017-11-25T02:51:48.098Z,9.20
2017-11-25T02:54:15.549Z,9.10
2017-11-25T02:56:43.018Z,9.10
2017-11-25T02:59:10.460Z,9.10
2017-11-25T03:01:37.897Z,9.10
2017-11-25T03:04:06.150Z,9.10
2017-11-25T03:06:33.609Z,9.20
2017-11-25T03:09:01.072Z,9.20
2017-11-25T03:11:28.506Z,9.20
2017-11-25T03:13:55.961Z,9.30
2017-11-25T03:16:23.430Z,9.30
2017-11-25T03:18:50.914Z,9.40
2017-11-25T03:21:18.369Z,9.40
2017-11-25T03:23:45.822Z,9.50
2017-11-25T03:26:14.402Z,9.50
2017-11-25T03:28:42.338Z,9.40
2017-11-25T03:31:13.612Z,9.40
2017-11-25T03:33:41.057Z,9.40
2017-11-25T03:36:09.142Z,9.40
2017-11-25T03:38:36.589Z,9.40
2017-11-25T03:41:04.058Z,9.40
2017-11-25T03:43:31.523Z,9.30
2017-11-25T03:45:58.974Z,9.20
2017-11-25T03:48:26.445Z,9.20
2017-11-25T03:50:53.890Z,9.20
2017-11-25T03:53:21.342Z,9.20
2017-11-25T03:55:49.110Z,9.20
2017-11-25T03:58:17.106Z,9.10
2017-11-25T04:00:45.318Z,9.20
2017-11-25T04:03:12.783Z,9.20
2017-11-25T04:05:40.363Z,9.30
2017-11-25T04:08:07.834Z,9.40
2017-11-25T04:10:36.204Z,9.40
2017-11-25T04:13:03.668Z,9.40
2017-11-25T04:15:31.222Z,9.30
2017-11-25T04:17:58.659Z,9.30
2017-11-25T04:20:26.117Z,9.30
2017-11-25T04:22:54.378Z,9.30
2017-11-25T04:25:21.838Z,9.30
2017-11-25T04:27:49.922Z,9.30
2017-11-25T04:30:17.393Z,9.30
2017-11-25T04:32:44.846Z,9.30
2017-11-25T04:35:12.326Z,9.20
2017-11-25T04:37:39.789Z,9.10
2017-11-25T04:40:08.032Z,9.00
2017-11-25T04:42:35.489Z,9.00
2017-11-25T04:45:03.719Z,9.00
2017-11-25T04:47:33.990Z,9.00
2017-11-25T04:50:01.438Z,8.90
2017-11-25T04:52:29.674Z,9.00
2017-11-25T04:54:58.845Z,9.00
2017-11-25T04:57:26.315Z,9.00
2017-11-25T04:59:54.531Z,8.90
2017-11-25T05:02:26.955Z,8.90
2017-11-25T05:04:54.786Z,8.90
2017-11-25T05:07:22.454Z,8.90
2017-11-25T05:09:49.912Z,8.90
2017-11-25T05:12:18.017Z,8.90
2017-11-25T05:14:45.533Z,8.90
2017-11-25T05:17:13.193Z,8.90
2017-11-25T05:19:40.658Z,8.90
2017-11-25T05:22:08.106Z,8.90
2017-11-25T05:24:35.703Z,8.90
2017-11-25T05:27:03.137Z,8.80
2017-11-25T05:29:30.610Z,8.80
2017-11-25T05:31:58.054Z,8.80
2017-11-25T05:34:34.307Z,8.80
2017-11-25T05:37:02.497Z,8.80
2017-11-25T05:39:30.194Z,8.80
2017-11-25T05:41:57.657Z,8.80
2017-11-25T05:44:25.087Z,8.80
2017-11-25T05:46:52.555Z,8.70
2017-11-25T05:49:24.346Z,8.90
2017-11-25T05:51:51.789Z,8.90
2017-11-25T05:54:19.298Z,8.90
2017-11-25T05:56:47.086Z,8.90
2017-11-25T05:59:14.610Z,8.80
2017-11-25T06:01:42.047Z,8.80
2017-11-25T06:04:09.716Z,8.80
2017-11-25T06:06:37.522Z,8.70
2017-11-25T06:09:05.785Z,8.70
2017-11-25T06:11:33.245Z,8.70
2017-11-25T06:14:00.707Z,8.70
2017-11-25T06:16:29.045Z,8.80
2017-11-25T06:19:00.250Z,8.80
2017-11-25T06:21:27.693Z,8.80
2017-11-25T06:23:55.245Z,8.70
2017-11-25T06:26:22.888Z,8.70
2017-11-25T06:28:50.342Z,8.60
2017-11-25T06:31:17.830Z,8.60
2017-11-25T06:33:49.674Z,8.50
2017-11-25T06:36:17.117Z,8.50
2017-11-25T06:38:44.590Z,8.50
2017-11-25T06:41:12.222Z,8.50
2017-11-25T06:43:39.705Z,8.50
2017-11-25T06:46:07.185Z,8.50
2017-11-25T06:48:34.648Z,8.50
2017-11-25T06:51:07.443Z,8.60
2017-11-25T06:53:35.652Z,8.70
2017-11-25T06:56:03.815Z,8.60
2017-11-25T06:58:31.549Z,8.70
2017-11-25T07:00:59.033Z,8.60
2017-11-25T07:03:26.526Z,8.70
2017-11-25T07:05:58.595Z,8.70
2017-11-25T07:08:26.042Z,8.60
2017-11-25T07:10:54.429Z,8.60
2017-11-25T07:13:21.881Z,8.60
2017-11-25T07:15:49.347Z,8.50
2017-11-25T07:18:16.793Z,8.60
2017-11-25T07:20:44.270Z,8.70
2017-11-25T07:23:12.651Z,8.70
2017-11-25T07:25:40.114Z,8.70
2017-11-25T07:28:07.578Z,8.60
2017-11-25T07:30:35.018Z,8.50
2017-11-25T07:33:02.893Z,8.30
2017-11-25T07:35:30.334Z,8.30
2017-11-25T07:37:57.982Z,8.40
2017-11-25T07:40:25.446Z,8.40
2017-11-25T07:42:53.020Z,8.30
2017-11-25T07:45:21.890Z,8.20
2017-11-25T07:47:49.561Z,8.20
2017-11-25T07:50:17.115Z,8.20
2017-11-25T07:52:45.497Z,8.10
2017-11-25T07:55:12.937Z,8.10
2017-11-25T07:57:40.373Z,8.00
2017-11-25T08:00:07.850Z,7.90
2017-11-25T08:02:35.287Z,7.90
2017-11-25T08:05:06.242Z,7.90
2017-11-25T08:07:33.685Z,7.90
2017-11-25T08:10:01.398Z,7.90
2017-11-25T08:12:30.237Z,8.00
2017-11-25T08:14:57.693Z,8.00
2017-11-25T08:17:25.190Z,7.90
2017-11-25T08:19:52.621Z,7.90
2017-11-25T08:22:20.062Z,7.90
2017-11-25T08:24:47.527Z,7.90
2017-11-25T08:27:15.002Z,7.90
2017-11-25T08:29:43.386Z,7.90
2017-11-25T08:32:10.942Z,7.80
2017-11-25T08:34:38.426Z,7.80
2017-11-25T08:37:06.057Z,7.80
2017-11-25T08:39:33.518Z,7.70
2017-11-25T08:42:01.320Z,7.60
2017-11-25T08:44:29.550Z,7.60
2017-11-25T08:46:57.021Z,7.60
2017-11-25T08:49:24.579Z,7.60
2017-11-25T08:51:52.911Z,7.60
2017-11-25T08:54:20.379Z,7.60
2017-11-25T08:56:47.927Z,7.60
2017-11-25T08:59:17.069Z,7.60
2017-11-25T09:01:44.513Z,7.60
2017-11-25T09:04:12.009Z,7.60
2017-11-25T09:06:39.441Z,7.60
2017-11-25T09:09:06.889Z,7.50
2017-11-25T09:11:34.353Z,7.50
2017-11-25T09:14:01.816Z,7.50
2017-11-25T09:16:29.684Z,7.50
2017-11-25T09:18:57.137Z,7.40
2017-11-25T09:21:31.758Z,7.50
2017-11-25T09:24:00.133Z,7.50
2017-11-25T09:26:27.772Z,7.50
2017-11-25T09:28:55.360Z,7.50
2017-11-25T09:31:22.874Z,7.40
2017-11-25T09:33:50.298Z,7.40
2017-11-25T09:36:18.070Z,7.40
2017-11-25T09:38:49.314Z,7.50
2017-11-25T09:41:17.546Z,7.50
2017-11-25T09:43:45.022Z,7.40
2017-11-25T09:46:12.469Z,7.40
2017-11-25T09:48:39.903Z,7.40
2017-11-25T09:51:07.381Z,7.30
2017-11-25T09:53:37.890Z,7.30
2017-11-25T09:56:05.371Z,7.30
2017-11-25T09:58:34.373Z,7.10
2017-11-25T10:01:01.814Z,7.10
2017-11-25T10:03:29.251Z,7.00
2017-11-25T10:05:56.730Z,7.00
2017-11-25T10:08:24.172Z,7.10
2017-11-25T10:10:51.626Z,7.00
2017-11-25T10:13:19.417Z,7.10
2017-11-25T10:15:47.508Z,7.00
2017-11-25T10:18:14.966Z,6.90
2017-11-25T10:20:42.426Z,6.90
2017-11-25T10:23:12.942Z,6.90
2017-11-25T10:25:40.429Z,6.90
2017-11-25T10:28:08.025Z,6.80
2017-11-25T10:30:35.606Z,6.70
2017-11-25T10:33:03.113Z,6.70
2017-11-25T10:35:31.370Z,6.70
2017-11-25T10:38:10.570Z,6.70
2017-11-25T10:40:38.025Z,6.60
2017-11-25T10:43:05.474Z,6.50
2017-11-25T10:45:32.942Z,6.50
2017-11-25T10:48:00.398Z,6.50
2017-11-25T10:50:28.026Z,6.40
2017-11-25T10:52:59.010Z,6.40
2017-11-25T10:55:27.286Z,6.50
2017-11-25T10:57:54.745Z,6.50
2017-11-25T11:00:22.199Z,6.40
2017-11-25T11:02:49.640Z,6.40
2017-11-25T11:05:17.113Z,6.40
2017-11-25T11:07:44.556Z,6.40
2017-11-25T11:10:11.987Z,6.40
2017-11-25T11:12:39.753Z,6.40
2017-11-25T11:15:07.226Z,6.40
2017-11-25T11:17:35.992Z,6.30
2017-11-25T11:20:03.428Z,6.30
2017-11-25T11:22:30.969Z,6.40
2017-11-25T11:24:58.405Z,6.30
2017-11-25T11:27:26.029Z,6.30
2017-11-25T11:29:53.486Z,6.20
2017-11-25T11:32:21.004Z,6.10
2017-11-25T11:34:49.158Z,6.10
2017-11-25T11:37:16.686Z,6.10
2017-11-25T11:39:44.142Z,6.00
2017-11-25T11:42:11.578Z,6.00
2017-11-25T11:44:39.026Z,6.00
2017-11-25T11:47:06.478Z,6.00
2017-11-25T11:49:33.925Z,6.00
2017-11-25T11:52:01.421Z,6.00
2017-11-25T11:54:29.333Z,6.00
2017-11-25T11:56:57.686Z,6.10
2017-11-25T11:59:25.766Z,6.10
2017-11-25T12:01:53.207Z,6.10
2017-11-25T12:04:21.470Z,6.10
2017-11-25T12:06:48.954Z,6.10
2017-11-25T12:09:23.673Z,6.10
2017-11-25T12:11:51.114Z,6.10
2017-11-25T12:14:18.593Z,6.10
2017-11-25T12:16:47.820Z,6.30
2017-11-25T12:19:15.280Z,6.20
2017-11-25T12:21:42.714Z,6.40
2017-11-25T12:24:10.178Z,6.40
2017-11-25T12:26:41.445Z,6.50
2017-11-25T12:29:08.893Z,6.60
2017-11-25T12:31:37.257Z,6.60
2017-11-25T12:34:04.828Z,6.60
2017-11-25T12:36:32.336Z,6.60
2017-11-25T12:38:59.809Z,6.70
2017-11-25T12:41:27.276Z,6.70
2017-11-25T12:43:55.329Z,6.80
2017-11-25T12:46:22.789Z,6.90
2017-11-25T12:48:50.321Z,6.90
2017-11-25T12:51:18.542Z,7.00
2017-11-25T12:53:45.973Z,7.00
2017-11-25T12:56:17.363Z,7.00
2017-11-25T12:58:45.118Z,7.00
2017-11-25T13:01:12.565Z,6.90
2017-11-25T13:03:40.045Z,6.90
2017-11-25T13:06:09.890Z,7.00
2017-11-25T13:08:37.352Z,7.00
2017-11-25T13:11:04.799Z,7.00
2017-11-25T13:13:32.790Z,7.00
2017-11-25T13:16:00.234Z,7.00
2017-11-25T13:18:29.381Z,7.00
2017-11-25T13:20:56.822Z,6.90
2017-11-25T13:23:24.284Z,6.90
2017-11-25T13:25:58.630Z,7.00
2017-11-25T13:28:26.090Z,7.00
2017-11-25T13:30:54.173Z,7.00
2017-11-25T13:33:22.778Z,6.90
2017-11-25T13:35:50.205Z,6.90
2017-11-25T13:38:17.821Z,6.90
2017-11-25T13:40:48.613Z,6.80
2017-11-25T13:43:16.854Z,7.00
2017-11-25T13:45:44.323Z,7.00
2017-11-25T13:48:12.078Z,7.00
2017-11-25T13:50:39.533Z,6.90
2017-11-25T13:53:07.028Z,6.90
2017-11-25T13:55:34.486Z,7.00
2017-11-25T13:58:03.411Z,6.90
2017-11-25T14:00:30.866Z,6.90
2017-11-25T14:02:58.342Z,6.90
2017-11-25T14:05:26.347Z,6.80
2017-11-25T14:07:54.577Z,6.80
2017-11-25T14:10:22.185Z,6.80
2017-11-25T14:12:50.445Z,6.80
2017-11-25T14:15:18.321Z,6.80
2017-11-25T14:17:46.710Z,6.80
2017-11-25T14:20:14.151Z,6.90
2017-11-25T14:22:42.389Z,6.90
2017-11-25T14:25:09.842Z,6.90
2017-11-25T14:27:47.649Z,6.90
2017-11-25T14:30:15.131Z,6.90
2017-11-25T14:32:42.590Z,6.80
2017-11-25T14:35:10.067Z,6.90
2017-11-25T14:37:38.278Z,6.80
2017-11-25T14:40:05.739Z,6.80
2017-11-25T14:42:33.189Z,6.80
2017-11-25T14:45:01.326Z,6.80
2017-11-25T14:47:28.762Z,6.80
2017-11-25T14:49:57.013Z,6.70
2017-11-25T14:52:24.558Z,6.70
2017-11-25T14:54:52.015Z,6.70
2017-11-25T14:57:23.631Z,6.70
2017-11-25T14:59:51.310Z,6.70
2017-11-25T15:02:18.744Z,6.70
2017-11-25T15:04:46.291Z,6.70
2017-11-25T15:07:13.834Z,6.70
2017-11-25T15:09:41.298Z,6.60
2017-11-25T15:12:16.602Z,6.60
2017-11-25T15:14:47.814Z,6.50
2017-11-25T15:17:16.169Z,6.40
2017-11-25T15:19:43.633Z,6.30
2017-11-25T15:22:11.079Z,6.20
2017-11-25T15:24:39.066Z,6.20
2017-11-25T15:27:06.525Z,6.20
2017-11-25T15:29:33.989Z,6.20
2017-11-25T15:32:01.430Z,6.30
2017-11-25T15:34:29.610Z,6.40
2017-11-25T15:36:57.074Z,6.40
2017-11-25T15:39:24.501Z,6.40
2017-11-25T15:41:51.959Z,6.40
2017-11-25T15:44:19.409Z,6.40
2017-11-25T15:46:47.045Z,6.40
2017-11-25T15:49:14.515Z,6.40
2017-11-25T15:51:41.954Z,6.40
2017-11-25T15:54:09.426Z,6.40
2017-11-25T15:56:37.807Z,6.40
2017-11-25T15:59:09.070Z,6.40
2017-11-25T16:01:36.514Z,6.30
2017-11-25T16:04:04.280Z,6.20
2017-11-25T16:06:31.745Z,6.00
2017-11-25T16:08:59.191Z,5.70
2017-11-25T16:11:28.398Z,5.30
2017-11-25T16:13:55.843Z,5.40
2017-11-25T16:16:23.294Z,5.20
2017-11-25T16:18:50.773Z,5.30
2017-11-25T16:21:18.211Z,5.30
2017-11-25T16:23:47.187Z,5.20
2017-11-25T16:26:14.856Z,5.20
2017-11-25T16:28:46.851Z,5.10
2017-11-25T16:31:14.298Z,5.10
2017-11-25T16:33:41.766Z,5.10
2017-11-25T16:36:09.200Z,5.10
2017-11-25T16:38:36.652Z,5.10
2017-11-25T16:41:04.107Z,5.00
2017-11-25T16:43:31.552Z,5.00
2017-11-25T16:45:59.049Z,5.10
2017-11-25T16:48:26.494Z,5.20
2017-11-25T16:50:53.949Z,5.20
2017-11-25T16:53:21.701Z,5.20
2017-11-25T16:55:50.103Z,5.10
2017-11-25T16:58:17.565Z,5.20
2017-11-25T17:00:45.030Z,5.20
2017-11-25T17:03:13.019Z,5.30
2017-11-25T17:05:41.237Z,5.20
2017-11-25T17:08:08.702Z,5.20
2017-11-25T17:10:36.247Z,5.20
2017-11-25T17:13:03.737Z,5.10
2017-11-25T17:15:31.196Z,5.00
2017-11-25T17:17:58.666Z,5.00
2017-11-25T17:20:26.126Z,4.90
2017-11-25T17:22:53.584Z,4.90
2017-11-25T17:25:21.399Z,4.90
2017-11-25T17:27:48.855Z,4.90
2017-11-25T17:30:20.654Z,5.00
2017-11-25T17:32:48.117Z,5.00
2017-11-25T17:35:15.584Z,5.10
2017-11-25T17:37:43.013Z,5.00
2017-11-25T17:40:10.476Z,4.90
2017-11-25T17:42:38.054Z,4.90
2017-11-25T17:45:05.477Z,4.90
2017-11-25T17:47:32.959Z,4.90
2017-11-25T17:50:00.734Z,4.90
2017-11-25T17:52:28.186Z,5.00
2017-11-25T17:54:55.624Z,5.00
2017-11-25T17:57:23.166Z,5.10
2017-11-25T17:59:50.607Z,5.20
2017-11-25T18:02:18.078Z,5.30
2017-11-25T18:04:45.516Z,5.30
2017-11-25T18:07:13.024Z,5.30
2017-11-25T18:09:40.454Z,5.30
2017-11-25T18:12:08.015Z,5.20
2017-11-25T18:14:35.495Z,5.10
2017-11-25T18:17:03.856Z,5.10
2017-11-25T18:19:31.311Z,5.00
2017-11-25T18:21:58.782Z,4.90
2017-11-25T18:24:26.237Z,4.80
2017-11-25T18:26:53.710Z,4.70
2017-11-25T18:29:21.169Z,4.60
2017-11-25T18:31:55.848Z,4.50
2017-11-25T18:34:23.302Z,4.50
2017-11-25T18:36:50.766Z,4.60
2017-11-25T18:39:18.226Z,4.60
2017-11-25T18:41:45.666Z,4.60
2017-11-25T18:44:13.202Z,4.50
2017-11-25T18:46:40.722Z,4.50
2017-11-25T18:49:08.195Z,4.30
2017-11-25T18:51:35.638Z,4.20
2017-11-25T18:54:03.117Z,4.30
2017-11-25T18:56:32.038Z,4.20
2017-11-25T18:58:59.504Z,4.20
2017-11-25T19:01:30.092Z,4.20
2017-11-25T19:03:57.505Z,4.10
2017-11-25T19:06:25.549Z,4.10
2017-11-25T19:08:53.258Z,4.10
2017-11-25T19:11:20.701Z,4.00
2017-11-25T19:13:48.173Z,4.00
2017-11-25T19:16:15.609Z,4.00
2017-11-25T19:18:43.055Z,4.00
2017-11-25T19:21:10.523Z,4.00
2017-11-25T19:23:37.964Z,4.10
2017-11-25T19:26:05.419Z,4.00
2017-11-25T19:28:32.877Z,4.10
2017-11-25T19:31:00.466Z,4.10
2017-11-25T19:33:29.458Z,4.10
2017-11-25T19:35:56.901Z,4.10
2017-11-25T19:38:24.342Z,4.10
2017-11-25T19:40:51.813Z,4.00
2017-11-25T19:43:19.261Z,4.00
2017-11-25T19:45:47.282Z,4.00
2017-11-25T19:48:14.712Z,4.00
2017-11-25T19:50:42.626Z,4.00
2017-11-25T19:53:10.111Z,4.10
2017-11-25T19:55:37.550Z,4.00
2017-11-25T19:58:05.258Z,4.00
2017-11-25T20:00:32.792Z,3.90
2017-11-25T20:03:00.244Z,3.90
2017-11-25T20:05:27.943Z,3.90
2017-11-25T20:07:56.618Z,3.90
2017-11-25T20:10:24.629Z,3.80
2017-11-25T20:12:52.114Z,3.80
2017-11-25T20:15:19.838Z,3.80
2017-11-25T20:17:51.390Z,3.70
2017-11-25T20:20:18.886Z,3.70
2017-11-25T20:22:46.362Z,3.60
2017-11-25T20:25:13.797Z,3.60
2017-11-25T20:27:41.497Z,3.50
2017-11-25T20:30:10.142Z,3.50
2017-11-25T20:32:40.741Z,3.50
2017-11-25T20:35:11.304Z,3.50
2017-11-25T20:37:38.729Z,3.50
2017-11-25T20:40:06.171Z,3.40
2017-11-25T20:42:35.325Z,3.30
2017-11-25T20:45:04.378Z,3.30
2017-11-25T20:47:33.121Z,3.30
2017-11-25T20:50:01.146Z,3.30
2017-11-25T20:52:30.274Z,3.30
2017-11-25T20:54:59.126Z,3.30
2017-11-25T20:57:27.341Z,3.40
2017-11-25T20:59:54.938Z,3.40
2017-11-25T21:02:24.256Z,3.50
2017-11-25T21:04:51.697Z,3.40
2017-11-25T21:07:21.610Z,3.50
2017-11-25T21:09:49.653Z,3.40
2017-11-25T21:12:22.597Z,3.30
2017-11-25T21:14:51.078Z,3.30
2017-11-25T21:17:19.299Z,3.30
2017-11-25T21:19:46.726Z,3.30
2017-11-25T21:22:15.025Z,3.40
2017-11-25T21:24:47.025Z,3.40
2017-11-25T21:27:16.198Z,3.40
2017-11-25T21:29:43.633Z,3.30
2017-11-25T21:32:11.073Z,3.30
2017-11-25T21:34:38.726Z,3.20
2017-11-25T21:37:06.185Z,3.20
2017-11-25T21:42:08.972Z,3.10
2017-11-25T21:44:40.743Z,3.10
2017-11-25T21:47:08.994Z,3.10
2017-11-25T21:49:36.454Z,3.10
2017-11-25T21:52:03.913Z,3.20
2017-11-25T21:54:31.377Z,3.20
2017-11-25T21:56:58.855Z,3.20
2017-11-25T21:59:26.790Z,3.20
2017-11-25T22:01:54.988Z,3.20
2017-11-25T22:04:22.571Z,3.20
2017-11-25T22:06:50.063Z,3.20
2017-11-25T22:09:17.491Z,3.20
2017-11-25T22:11:45.070Z,3.20
2017-11-25T22:14:14.241Z,3.20
2017-11-25T22:16:41.685Z,3.20
2017-11-25T22:19:12.174Z,3.20
2017-11-25T22:21:39.709Z,3.20
2017-11-25T22:24:07.195Z,3.20
2017-11-25T22:26:34.662Z,3.20
2017-11-25T22:29:03.893Z,3.10
2017-11-25T22:31:31.334Z,3.10
2017-11-25T22:34:00.099Z,3.10
2017-11-25T22:36:29.115Z,3.00
2017-11-25T22:38:56.550Z,3.00
2017-11-25T22:41:24.049Z,3.00
2017-11-25T22:43:52.453Z,3.00
2017-11-25T22:46:19.896Z,3.00
2017-11-25T22:48:47.345Z,3.10
2017-11-25T22:51:18.359Z,3.00
2017-11-25T22:53:48.027Z,3.00
2017-11-25T22:56:16.730Z,3.00
2017-11-25T22:58:45.197Z,3.00
2017-11-25T23:01:13.013Z,3.00
2017-11-25T23:03:40.584Z,3.00
2017-11-25T23:06:14.241Z,2.90
2017-11-25T23:08:42.602Z,2.80
2017-11-25T23:11:10.057Z,2.70
2017-11-25T23:13:37.571Z,2.60
2017-11-25T23:16:04.996Z,2.50
2017-11-25T23:18:32.654Z,2.40
2017-11-25T23:21:04.604Z,2.30
2017-11-25T23:23:32.057Z,2.20
2017-11-25T23:25:59.526Z,2.20
2017-11-25T23:28:27.046Z,2.10
2017-11-25T23:30:54.500Z,2.10
2017-11-25T23:33:22.144Z,2.10
2017-11-25T23:35:52.858Z,2.00
2017-11-25T23:38:22.188Z,2.00
2017-11-25T23:40:49.650Z,2.00
2017-11-25T23:43:17.722Z,2.00
2017-11-25T23:45:45.188Z,2.00
2017-11-25T23:48:13.493Z,1.90
2017-11-25T23:50:44.433Z,1.90
2017-11-25T23:53:16.373Z,1.90
2017-11-25T23:55:43.806Z,1.80
2017-11-25T23:58:11.379Z,1.80
